Time;durP1;ratioP1;P1;durP2;ratioP2;P2;SDS_P1;SDS_P2;PMS_P1;PMS_P2;Temp;Humidity;BMP_temperature;BMP_pressure;BME280_temperature;BME280_humidity;BME280_pressure;Samples;Min_cycle;Max_cycle;Signal;HPM_P1;HPM_P2
2023/09/22 00:02:07;;;;;;;12.40;9.10;;;;;;;23.26;43.84;99416.37;109764;1251;67244;-49
2023/09/22 00:04:35;;;;;;;19.00;10.30;;;;;;;23.23;43.99;99419.09;109703;1250;71201;-49
2023/09/22 00:07:02;;;;;;;12.60;9.90;;;;;;;23.21;43.84;99418.80;109695;1250;61245;-50
2023/09/22 00:09:29;;;;;;;13.20;10.40;;;;;;;23.15;43.93;99420.09;109735;1251;58999;-50
2023/09/22 00:11:56;;;;;;;17.20;9.80;;;;;;;23.05;44.20;99419.92;109725;1250;73691;-52
2023/09/22 00:14:22;;;;;;;15.90;9.30;;;;;;;22.93;44.54;99417.14;109529;1251;67613;-51
2023/09/22 00:16:49;;;;;;;13.20;10.20;;;;;;;22.84;44.61;99421.61;109554;1251;72581;-51
2023/09/22 00:19:16;;;;;;;10.80;9.00;;;;;;;22.72;44.83;99421.14;109553;1253;61662;-51
2023/09/22 00:21:42;;;;;;;18.90;9.80;;;;;;;22.47;45.34;99415.82;109546;1251;58944;-51
2023/09/22 00:24:09;;;;;;;15.10;9.90;;;;;;;22.30;45.96;99413.40;109758;1250;74729;-51
2023/09/22 00:26:36;;;;;;;19.30;10.00;;;;;;;22.32;46.13;99412.23;109439;1251;68554;-51
2023/09/22 00:29:02;;;;;;;26.80;10.30;;;;;;;22.35;46.05;99414.20;109706;1250;72579;-52
2023/09/22 00:31:29;;;;;;;17.30;9.50;;;;;;;22.33;46.07;99413.18;109721;1250;62015;-51
2023/09/22 00:33:56;;;;;;;13.40;9.40;;;;;;;22.26;46.28;99409.48;109756;1250;60086;-51
2023/09/22 00:36:25;;;;;;;10.80;9.30;;;;;;;22.28;46.40;99412.45;109716;1250;73237;-51
2023/09/22 00:38:52;;;;;;;13.90;9.40;;;;;;;22.25;46.47;99413.28;109765;1250;67466;-51
2023/09/22 00:41:19;;;;;;;16.10;10.60;;;;;;;22.19;46.63;99413.45;109571;1250;72771;-51
2023/09/22 00:43:45;;;;;;;18.70;9.80;;;;;;;22.26;46.60;99416.06;109696;1250;61793;-51
2023/09/22 00:46:13;;;;;;;10.70;9.40;;;;;;;22.23;46.73;99415.61;109711;1250;59076;-51
2023/09/22 00:48:40;;;;;;;17.00;9.90;;;;;;;22.21;46.71;99414.02;109480;1251;74495;-52
2023/09/22 00:51:07;;;;;;;13.20;9.50;;;;;;;22.22;46.75;99410.60;109252;1254;68926;-51
2023/09/22 00:53:34;;;;;;;15.00;10.00;;;;;;;22.20;46.84;99411.22;109360;1254;71905;-51
2023/09/22 00:56:03;;;;;;;13.50;9.70;;;;;;;22.23;46.76;99410.34;109224;1254;60910;-51
2023/09/22 00:58:29;;;;;;;12.20;9.40;;;;;;;22.16;46.87;99415.52;109358;1254;60349;-51
2023/09/22 01:00:56;;;;;;;13.30;9.70;;;;;;;22.11;47.13;99413.37;109352;1254;74652;-49
2023/09/22 01:03:23;;;;;;;12.80;9.40;;;;;;;22.22;46.85;99415.42;109387;1254;68699;-49
2023/09/22 01:05:50;;;;;;;14.40;10.40;;;;;;;22.19;47.12;99408.98;109351;1254;72481;-49
2023/09/22 01:08:18;;;;;;;14.10;9.60;;;;;;;22.20;47.02;99412.77;109384;1254;60471;-51
2023/09/22 01:10:46;;;;;;;13.60;9.80;;;;;;;22.16;47.08;99416.13;109396;1254;59084;-51
2023/09/22 01:13:13;;;;;;;12.10;8.80;;;;;;;22.30;46.74;99412.85;109167;1256;74565;-52
2023/09/22 01:15:41;;;;;;;14.90;10.30;;;;;;;22.25;46.80;99414.23;109195;1254;66311;-51
2023/09/22 01:18:08;;;;;;;11.70;9.10;;;;;;;22.23;46.78;99414.23;109052;1254;71328;-52
2023/09/22 01:20:44;;;;;;;15.30;9.30;;;;;;;22.26;46.77;99415.20;109352;1254;60857;-52
2023/09/22 01:23:12;;;;;;;16.10;9.70;;;;;;;22.26;46.80;99413.39;109487;1252;59278;-52
2023/09/22 01:25:42;;;;;;;13.40;9.50;;;;;;;22.26;46.90;99415.34;109546;1252;74722;-52
2023/09/22 01:28:09;;;;;;;13.80;9.30;;;;;;;22.04;47.49;99415.61;109561;1252;67407;-52
2023/09/22 01:30:38;;;;;;;14.30;8.80;;;;;;;22.01;47.70;99421.52;109537;1252;72570;-52
2023/09/22 01:33:05;;;;;;;10.90;9.00;;;;;;;21.86;48.03;99421.02;109466;1252;59570;-55
2023/09/22 01:35:32;;;;;;;12.40;9.30;;;;;;;21.87;48.01;99417.19;109575;1252;58919;-52
2023/09/22 01:38:05;;;;;;;12.90;9.50;;;;;;;22.00;47.70;99416.80;109577;1252;73482;-52
2023/09/22 01:40:32;;;;;;;14.30;9.50;;;;;;;22.12;47.24;99417.45;109582;1253;67553;-52
2023/09/22 01:42:59;;;;;;;17.60;10.10;;;;;;;22.12;47.29;99417.46;109536;1252;71226;-52
2023/09/22 01:45:25;;;;;;;13.60;9.60;;;;;;;21.98;47.54;99420.06;109595;1252;61795;-51
2023/09/22 01:47:52;;;;;;;17.20;9.40;;;;;;;21.92;47.80;99422.12;109512;1252;60145;-51
2023/09/22 01:50:19;;;;;;;12.00;9.30;;;;;;;21.92;47.84;99422.17;109575;1251;74531;-52
2023/09/22 01:52:45;;;;;;;12.00;9.60;;;;;;;22.05;47.41;99419.39;109528;1253;68514;-52
2023/09/22 01:55:12;;;;;;;12.00;9.20;;;;;;;22.04;47.30;99418.96;109481;1252;71741;-52
2023/09/22 01:57:39;;;;;;;10.70;8.20;;;;;;;22.04;47.44;99419.51;109538;1252;61804;-52
2023/09/22 02:00:06;;;;;;;16.60;8.40;;;;;;;21.89;47.74;99423.02;109306;1252;60342;-51
2023/09/22 02:02:42;;;;;;;13.30;9.10;;;;;;;21.83;47.99;99419.03;109555;1252;74562;-51
2023/09/22 02:05:11;;;;;;;17.90;8.80;;;;;;;21.81;48.04;99415.52;109418;1252;67277;-51
2023/09/22 02:07:38;;;;;;;12.80;9.00;;;;;;;21.73;48.19;99417.35;109533;1252;71311;-51
2023/09/22 02:10:06;;;;;;;13.00;9.30;;;;;;;21.71;48.21;99415.52;109580;1252;61818;-51
2023/09/22 02:12:32;;;;;;;14.30;8.80;;;;;;;21.71;48.38;99417.94;109385;1253;59449;-51
2023/09/22 02:15:00;;;;;;;10.10;7.80;;;;;;;21.73;48.31;99416.33;109561;1252;74458;-51
2023/09/22 02:17:27;;;;;;;11.10;8.60;;;;;;;21.70;48.33;99415.50;109474;1251;67333;-52
2023/09/22 02:19:55;;;;;;;12.60;9.80;;;;;;;21.71;48.39;99415.43;109572;1251;70186;-51
2023/09/22 02:22:21;;;;;;;14.60;7.90;;;;;;;21.84;48.11;99414.15;109479;1252;60495;-50
2023/09/22 02:24:48;;;;;;;10.60;9.30;;;;;;;21.88;47.88;99409.71;109398;1252;59056;-50
2023/09/22 02:27:15;;;;;;;11.70;8.60;;;;;;;21.85;48.06;99407.63;109608;1252;74689;-50
2023/09/22 02:29:41;;;;;;;12.00;9.10;;;;;;;21.90;48.01;99407.34;109289;1251;68466;-51
2023/09/22 02:32:08;;;;;;;13.80;9.40;;;;;;;21.92;47.92;99410.95;109559;1252;72760;-50
2023/09/22 02:34:36;;;;;;;13.90;9.40;;;;;;;22.25;47.07;99407.20;109546;1252;60395;-51
2023/09/22 02:37:03;;;;;;;15.90;9.50;;;;;;;22.30;46.84;99408.84;109328;1251;59021;-51
2023/09/22 02:39:30;;;;;;;14.30;9.90;;;;;;;22.27;46.85;99410.69;109153;1253;74654;-51
2023/09/22 02:41:57;;;;;;;12.20;9.30;;;;;;;22.30;46.68;99410.58;109174;1251;67642;-51
2023/09/22 02:44:24;;;;;;;11.90;9.30;;;;;;;22.23;46.92;99405.41;109386;1252;71653;-51
2023/09/22 02:46:50;;;;;;;11.40;8.60;;;;;;;22.11;47.22;99403.27;109522;1252;61531;-51
2023/09/22 02:49:17;;;;;;;13.60;8.70;;;;;;;22.15;47.12;99405.48;109517;1252;59079;-51
2023/09/22 02:51:44;;;;;;;15.20;8.30;;;;;;;22.10;47.17;99403.86;109618;1253;74537;-50
2023/09/22 02:54:11;;;;;;;13.70;9.20;;;;;;;22.09;47.25;99404.23;109517;1251;67199;-51
2023/09/22 02:56:38;;;;;;;16.60;9.30;;;;;;;22.01;47.41;99405.83;109576;1252;72653;-50
2023/09/22 02:59:04;;;;;;;12.90;8.70;;;;;;;22.01;47.30;99402.33;109542;1252;59567;-51
2023/09/22 03:01:31;;;;;;;11.00;9.50;;;;;;;22.03;47.36;99401.44;109593;1251;59085;-51
2023/09/22 03:03:57;;;;;;;20.30;9.70;;;;;;;21.95;47.55;99403.79;109300;1252;74583;-50
2023/09/22 03:06:25;;;;;;;17.20;9.00;;;;;;;21.85;47.83;99406.94;109562;1253;68623;-51
2023/09/22 03:08:52;;;;;;;9.50;8.40;;;;;;;21.90;47.64;99409.52;109463;1251;71464;-51
2023/09/22 03:11:18;;;;;;;15.00;9.00;;;;;;;21.68;48.24;99411.13;109492;1252;60378;-51
2023/09/22 03:13:45;;;;;;;10.50;9.20;;;;;;;21.72;48.17;99413.61;109617;1251;60068;-51
2023/09/22 03:16:12;;;;;;;12.40;8.50;;;;;;;21.62;48.44;99403.09;109610;1250;74660;-51
2023/09/22 03:18:39;;;;;;;10.20;8.90;;;;;;;21.63;48.30;99401.66;109568;1251;67512;-51
2023/09/22 03:21:05;;;;;;;9.90;8.00;;;;;;;21.65;48.38;99404.06;109381;1251;72112;-52
2023/09/22 03:23:32;;;;;;;12.40;9.20;;;;;;;21.67;48.45;99403.98;109614;1251;61668;-51
2023/09/22 03:26:02;;;;;;;14.80;9.50;;;;;;;21.71;48.12;99406.16;109628;1251;60182;-52
2023/09/22 03:28:30;;;;;;;19.00;11.00;;;;;;;21.88;47.75;99405.31;109441;1251;73703;-51
2023/09/22 03:30:58;;;;;;;12.90;7.80;;;;;;;21.92;47.59;99404.67;109648;1251;67119;-51
2023/09/22 03:33:25;;;;;;;11.00;9.10;;;;;;;21.85;47.66;99405.86;109490;1251;72691;-52
2023/09/22 03:35:52;;;;;;;14.50;8.70;;;;;;;21.84;47.62;99406.20;109676;1250;61618;-51
2023/09/22 03:38:19;;;;;;;10.40;7.90;;;;;;;21.80;47.69;99405.32;109703;1250;59983;-51
2023/09/22 03:40:45;;;;;;;13.70;8.80;;;;;;;21.71;47.94;99407.65;109739;1250;74526;-52
2023/09/22 03:43:12;;;;;;;16.00;10.00;;;;;;;21.88;47.67;99409.40;109698;1250;67401;-52
2023/09/22 03:45:39;;;;;;;13.00;9.00;;;;;;;21.95;47.30;99409.58;109446;1251;71267;-52
2023/09/22 03:48:07;;;;;;;24.80;10.50;;;;;;;21.89;47.29;99409.42;109690;1250;60674;-51
2023/09/22 03:50:36;;;;;;;16.50;9.30;;;;;;;21.90;47.24;99411.19;109620;1251;59392;-52
2023/09/22 03:53:03;;;;;;;;;;;;;;;21.84;47.33;99410.42;109783;1250;75030;-52
2023/09/22 03:55:31;;;;;;;14.50;9.50;;;;;;;21.86;47.17;99415.08;109472;1251;68768;-52
2023/09/22 03:57:58;;;;;;;12.10;9.60;;;;;;;21.62;47.70;99414.48;109673;1250;71098;-51
2023/09/22 04:00:28;;;;;;;16.20;9.20;;;;;;;21.49;48.22;99411.56;109719;1250;61998;-51
2023/09/22 04:02:55;;;;;;;14.80;9.60;;;;;;;21.44;48.35;99413.02;109699;1250;60022;-52
2023/09/22 04:05:22;;;;;;;11.90;9.30;;;;;;;21.33;48.61;99410.45;109536;1250;74548;-50
2023/09/22 04:07:51;;;;;;;17.00;9.70;;;;;;;21.42;48.45;99409.23;109740;1250;68485;-51
2023/09/22 04:10:19;;;;;;;15.60;9.50;;;;;;;21.48;48.38;99417.59;109686;1251;71172;-51
2023/09/22 04:12:46;;;;;;;16.40;10.30;;;;;;;21.51;48.35;99414.45;109651;1250;60362;-51
2023/09/22 04:15:13;;;;;;;19.50;10.20;;;;;;;21.50;48.24;99411.18;109577;1252;58950;-51
2023/09/22 04:17:39;;;;;;;15.60;9.30;;;;;;;21.47;48.44;99409.76;109501;1252;73584;-51
2023/09/22 04:20:08;;;;;;;19.10;9.60;;;;;;;21.60;48.02;99411.23;109505;1252;68672;-51
2023/09/22 04:22:35;;;;;;;15.20;9.30;;;;;;;21.73;47.59;99410.63;109504;1251;72656;-51
2023/09/22 04:25:07;;;;;;;22.40;9.30;;;;;;;21.87;47.16;99407.54;109529;1252;60882;-51
2023/09/22 04:27:38;;;;;;;12.40;10.40;;;;;;;21.96;47.18;99415.55;109589;1252;60324;-51
2023/09/22 04:30:07;;;;;;;15.00;9.50;;;;;;;21.93;47.22;99415.34;109465;1252;111089;-51
2023/09/22 04:32:35;;;;;;;15.90;9.10;;;;;;;22.08;46.74;99414.67;109546;1252;67235;-51
2023/09/22 04:35:09;;;;;;;10.90;9.60;;;;;;;22.41;46.36;99417.45;109513;1252;71543;-51
2023/09/22 04:37:36;;;;;;;16.50;10.50;;;;;;;22.67;45.60;99421.02;109536;1252;60734;-51
2023/09/22 04:40:23;;;;;;;17.00;9.20;;;;;;;22.92;44.95;99421.98;109551;1251;58981;-51
2023/09/22 04:42:50;;;;;;;25.30;8.80;;;;;;;23.19;44.21;99425.91;109536;1252;73383;-52
2023/09/22 04:45:21;;;;;;;14.70;9.00;;;;;;;23.40;43.80;99426.21;109445;1252;68902;-52
2023/09/22 04:47:49;;;;;;;15.40;8.60;;;;;;;23.72;43.13;99427.38;109557;1252;71393;-52
2023/09/22 04:50:16;;;;;;;17.70;9.10;;;;;;;23.92;42.42;99432.45;109569;1252;60517;-52
2023/09/22 04:52:47;;;;;;;19.60;9.10;;;;;;;23.98;42.25;99433.34;109618;1252;59310;-52
2023/09/22 04:55:16;;;;;;;14.80;8.30;;;;;;;24.19;41.88;99433.23;109553;1252;73236;-52
2023/09/22 04:57:43;;;;;;;19.40;8.30;;;;;;;24.50;41.36;99435.77;109443;1252;67295;-52
2023/09/22 05:00:15;;;;;;;16.70;8.20;;;;;;;24.61;40.93;99437.43;109519;1252;72394;-53
2023/09/22 05:02:43;;;;;;;30.90;9.60;;;;;;;24.53;41.17;99439.30;109584;1251;59153;-52
2023/09/22 05:05:11;;;;;;;16.10;9.20;;;;;;;24.44;41.08;99438.45;109587;1251;60449;-52
2023/09/22 05:07:38;;;;;;;26.40;9.70;;;;;;;24.26;41.42;99442.85;109618;1251;74660;-52
2023/09/22 05:10:06;;;;;;;18.90;8.70;;;;;;;24.01;41.60;99440.16;109567;1251;67776;-52
2023/09/22 05:12:34;;;;;;;21.70;9.40;;;;;;;23.72;42.08;99441.30;109550;1252;72592;-52
2023/09/22 05:15:02;;;;;;;22.70;9.70;;;;;;;23.93;42.41;99445.58;109513;1252;60280;-51
2023/09/22 05:17:29;;;;;;;19.40;9.50;;;;;;;24.50;41.58;99445.67;109530;1252;60244;-52
2023/09/22 05:19:55;;;;;;;16.80;7.90;;;;;;;24.38;41.17;99442.88;109640;1251;74488;-50
2023/09/22 05:22:22;;;;;;;22.70;9.70;;;;;;;24.06;41.69;99443.13;109645;1251;68712;-51
2023/09/22 05:24:49;;;;;;;41.10;9.30;;;;;;;23.70;42.29;99442.58;109700;1250;72001;-51
2023/09/22 05:27:16;;;;;;;54.10;11.30;;;;;;;23.90;42.33;99442.95;109702;1251;60299;-52
2023/09/22 05:29:43;;;;;;;24.90;9.40;;;;;;;23.95;41.94;99443.43;109584;1250;59087;-52
2023/09/22 05:32:10;;;;;;;30.40;11.40;;;;;;;23.86;42.00;99440.27;109740;1250;74442;-52
2023/09/22 05:34:39;;;;;;;31.60;10.90;;;;;;;24.11;41.93;99440.69;109584;1251;67251;-51
2023/09/22 05:37:06;;;;;;;36.70;9.50;;;;;;;24.51;41.19;99447.48;109705;1251;72514;-51
2023/09/22 05:39:33;;;;;;;20.20;9.10;;;;;;;25.04;40.39;99448.59;109510;1251;59052;-51
2023/09/22 05:42:00;;;;;;;18.70;8.40;;;;;;;24.93;40.12;99455.62;109682;1250;58934;-52
2023/09/22 05:44:28;;;;;;;22.20;7.20;;;;;;;24.72;40.34;99457.63;109728;1250;73822;-52
2023/09/22 05:46:55;;;;;;;14.90;8.90;;;;;;;24.82;40.42;99456.19;109732;1251;68580;-52
2023/09/22 05:49:22;;;;;;;18.50;8.50;;;;;;;24.80;40.57;99454.92;109688;1251;72506;-52
2023/09/22 05:51:49;;;;;;;24.10;9.30;;;;;;;24.84;40.57;99458.05;109655;1251;58935;-51
2023/09/22 05:54:15;;;;;;;12.70;8.60;;;;;;;24.98;40.34;99460.05;109691;1250;60066;-52
2023/09/22 05:56:42;;;;;;;21.00;8.50;;;;;;;25.00;40.29;99463.40;109718;1251;73469;-52
2023/09/22 05:59:09;;;;;;;18.20;9.00;;;;;;;25.02;40.66;99462.59;109690;1250;67101;-52
2023/09/22 06:01:37;;;;;;;30.40;8.40;;;;;;;25.15;40.28;99462.55;109700;1250;72348;-52
2023/09/22 06:04:04;;;;;;;12.90;7.30;;;;;;;25.14;40.09;99468.94;109526;1251;60015;-51
2023/09/22 06:06:34;;;;;;;13.20;7.20;;;;;;;24.97;40.43;99466.30;109653;1251;59054;-51
2023/09/22 06:09:01;;;;;;;9.50;7.00;;;;;;;25.34;40.01;99474.48;109777;1250;73720;-52
2023/09/22 06:11:28;;;;;;;13.90;7.80;;;;;;;25.88;39.42;99473.31;109727;1250;68633;-51
2023/09/22 06:13:55;;;;;;;14.00;8.60;;;;;;;26.51;38.37;99477.52;109580;1252;72679;-52
2023/09/22 06:16:24;;;;;;;19.90;7.90;;;;;;;26.76;38.14;99474.58;109418;1252;59400;-52
2023/09/22 06:18:51;;;;;;;14.80;7.50;;;;;;;27.12;37.72;99476.48;109566;1254;60319;-52
2023/09/22 06:21:17;;;;;;;15.40;7.30;;;;;;;27.42;37.32;99477.55;109584;1252;73026;-52
2023/09/22 06:23:44;;;;;;;8.80;6.50;;;;;;;27.64;36.91;99476.89;109682;1250;68373;-52
2023/09/22 06:26:12;;;;;;;15.10;7.60;;;;;;;28.15;36.50;99479.77;109725;1250;72304;-52
2023/09/22 06:28:38;;;;;;;14.50;6.80;;;;;;;27.98;36.62;99484.81;109437;1251;60232;-52
2023/09/22 06:31:05;;;;;;;14.30;6.40;;;;;;;27.82;36.62;99493.55;109755;1251;59254;-52
2023/09/22 06:33:32;;;;;;;11.50;6.60;;;;;;;27.98;36.64;99494.98;109774;1250;74547;-52
2023/09/22 06:36:01;;;;;;;10.80;6.00;;;;;;;28.09;36.47;99502.30;109722;1251;67773;-53
2023/09/22 06:38:28;;;;;;;12.60;6.90;;;;;;;27.95;36.53;99505.65;109719;1251;71044;-52
2023/09/22 06:40:55;;;;;;;9.30;6.30;;;;;;;28.33;36.54;99505.33;109700;1251;59444;-52
2023/09/22 06:43:25;;;;;;;9.00;7.00;;;;;;;28.37;36.20;99505.34;109722;1251;60299;-52
2023/09/22 06:45:53;;;;;;;9.60;6.50;;;;;;;28.24;36.41;99505.19;109770;1251;73644;-52
2023/09/22 06:48:26;;;;;;;19.80;6.70;;;;;;;28.30;36.44;99506.54;109708;1251;68587;-52
2023/09/22 06:50:57;;;;;;;10.70;6.00;;;;;;;29.02;36.31;99508.90;109727;1250;72488;-51
2023/09/22 06:53:26;;;;;;;13.90;6.80;;;;;;;29.16;35.84;99509.83;109629;1251;59225;-52
2023/09/22 06:56:03;;;;;;;10.80;6.20;;;;;;;29.31;35.56;99513.22;109379;1251;60246;-52
2023/09/22 06:58:30;;;;;;;10.20;6.40;;;;;;;29.85;35.03;99511.15;109738;1254;73441;-52
2023/09/22 07:01:06;;;;;;;9.10;6.00;;;;;;;29.76;34.92;99512.81;109725;1251;68623;-52
2023/09/22 07:03:33;;;;;;;11.60;5.90;;;;;;;30.28;34.17;99513.71;109683;1250;71283;-52
2023/09/22 07:06:00;;;;;;;9.90;5.80;;;;;;;30.17;34.57;99514.02;109759;1250;59058;-53
2023/09/22 07:08:29;;;;;;;8.00;5.50;;;;;;;29.81;34.95;99508.36;109689;1250;60355;-52
2023/09/22 07:11:03;;;;;;;9.40;6.20;;;;;;;29.97;34.82;99515.11;109776;1250;75108;-52
2023/09/22 07:13:30;;;;;;;12.30;5.60;;;;;;;30.01;34.78;99514.73;109203;1252;68861;-52
2023/09/22 07:15:57;;;;;;;9.90;5.50;;;;;;;29.59;35.23;99514.65;109561;1252;72617;-52
2023/09/22 07:18:25;;;;;;;13.20;5.80;;;;;;;29.27;35.90;99510.56;109582;1250;59301;-52
2023/09/22 07:20:52;;;;;;;11.70;5.90;;;;;;;29.05;36.45;99509.96;109128;1253;60051;-52
2023/09/22 07:23:20;;;;;;;23.50;6.50;;;;;;;29.33;36.07;99506.92;109639;1250;74503;-52
2023/09/22 07:26:09;;;;;;;11.80;6.30;;;;;;;29.56;35.97;99513.92;109700;1250;68543;-53
2023/09/22 07:28:36;;;;;;;12.90;5.70;;;;;;;29.63;35.85;99516.98;109734;1251;71846;-52
2023/09/22 07:31:18;;;;;;;17.10;6.30;;;;;;;29.70;35.75;99520.35;109722;1250;58958;-52
2023/09/22 07:33:45;;;;;;;12.40;5.20;;;;;;;29.92;35.17;99518.94;109202;1251;60020;-52
2023/09/22 07:36:12;;;;;;;10.90;5.40;;;;;;;29.91;35.30;99518.70;109204;1251;73670;-52
2023/09/22 07:38:39;;;;;;;14.20;6.20;;;;;;;29.93;35.69;99517.20;109718;1251;68535;-53
2023/09/22 07:41:06;;;;;;;13.90;5.40;;;;;;;30.62;34.94;99514.50;109652;1254;70721;-53
2023/09/22 07:43:33;;;;;;;15.00;5.60;;;;;;;30.82;34.35;99516.88;109745;1251;58999;-53
2023/09/22 07:46:03;;;;;;;20.30;5.00;;;;;;;30.43;34.85;99518.52;109736;1251;60073;-53
2023/09/22 07:48:30;;;;;;;7.10;4.90;;;;;;;31.13;34.18;99521.46;109719;1251;74669;-53
2023/09/22 07:51:02;;;;;;;19.30;5.40;;;;;;;31.44;33.67;99523.81;109749;1250;58973;-53
2023/09/22 07:53:29;;;;;;;8.10;4.60;;;;;;;31.08;33.82;99521.77;109704;1250;73176;-52
2023/09/22 07:55:56;;;;;;;12.70;5.10;;;;;;;30.62;34.65;99514.58;109428;1250;60269;-52
2023/09/22 07:58:22;;;;;;;9.30;4.60;;;;;;;30.72;34.54;99519.52;109695;1250;58998;-52
2023/09/22 08:00:50;;;;;;;6.70;4.30;;;;;;;30.52;34.36;99512.95;109726;1251;74640;-52
2023/09/22 08:03:18;;;;;;;;;;;;;;;29.99;35.20;99511.95;109782;1251;68615;-52
2023/09/22 08:05:46;;;;;;;12.80;4.60;;;;;;;29.69;35.75;99513.38;109708;1251;72399;-52
2023/09/22 08:08:13;;;;;;;12.80;4.50;;;;;;;29.20;35.98;99508.93;109723;1250;59075;-53
2023/09/22 08:10:40;;;;;;;8.50;4.60;;;;;;;29.47;35.77;99511.87;109715;1251;60264;-52
2023/09/22 08:13:09;;;;;;;13.20;5.00;;;;;;;30.14;34.85;99511.81;109535;1252;73182;-52
2023/09/22 08:15:39;;;;;;;10.20;4.30;;;;;;;30.52;34.55;99508.04;109617;1252;68554;-51
2023/09/22 08:18:07;;;;;;;9.50;4.40;;;;;;;30.82;33.92;99510.45;109589;1253;71737;-52
2023/09/22 08:20:34;;;;;;;9.00;4.40;;;;;;;31.28;33.45;99508.02;109593;1252;59029;-51
2023/09/22 08:23:01;;;;;;;9.50;4.60;;;;;;;30.77;33.54;99506.72;109669;1251;58950;-53
2023/09/22 08:25:28;;;;;;;11.40;4.60;;;;;;;31.02;33.48;99505.23;109568;1250;74137;-53
2023/09/22 08:27:56;;;;;;;10.80;4.50;;;;;;;31.44;33.03;99507.65;109713;1251;67524;-52
2023/09/22 08:30:23;;;;;;;7.00;4.80;;;;;;;31.72;32.75;99506.38;109485;1251;70613;-53
2023/09/22 08:32:50;;;;;;;;;;;;;;;32.18;32.02;99507.89;109740;1250;58989;-53
2023/09/22 08:35:17;;;;;;;5.20;4.40;;;;;;;32.54;31.34;99506.20;109707;1251;59020;-54
2023/09/22 08:37:44;;;;;;;8.60;4.10;;;;;;;32.65;31.05;99503.77;109755;1255;74470;-54
2023/09/22 08:40:15;;;;;;;9.00;3.80;;;;;;;32.57;30.56;99498.96;109746;1251;61527;-53
2023/09/22 08:42:44;;;;;;;15.20;4.10;;;;;;;32.44;30.49;99502.41;109712;1250;63844;-52
2023/09/22 08:45:10;;;;;;;7.80;3.80;;;;;;;32.22;29.75;99496.14;109732;1251;59062;-53
2023/09/22 08:47:39;;;;;;;6.40;3.90;;;;;;;32.36;29.23;99500.77;109772;1250;59025;-53
2023/09/22 08:50:18;;;;;;;8.40;3.80;;;;;;;32.69;29.05;99501.44;109727;1251;65988;-52
2023/09/22 08:52:51;;;;;;;6.70;3.00;;;;;;;32.99;28.82;99503.36;109749;1251;58974;-54
2023/09/22 08:55:18;;;;;;;8.00;3.60;;;;;;;33.08;29.13;99503.19;109620;1250;63839;-53
2023/09/22 08:57:46;;;;;;;10.90;3.40;;;;;;;33.64;28.66;99502.17;109722;1251;58946;-54
2023/09/22 09:00:20;;;;;;;9.20;3.20;;;;;;;33.21;27.66;99495.79;109736;1251;59041;-54
2023/09/22 09:02:48;;;;;;;8.60;3.20;;;;;;;32.55;28.13;99490.08;109748;1251;66019;-52
2023/09/22 09:05:24;;;;;;;5.90;2.80;;;;;;;32.35;28.64;99488.48;109743;1250;59889;-52
2023/09/22 09:07:51;;;;;;;7.50;3.80;;;;;;;32.66;28.72;99493.29;109723;1250;63959;-52
2023/09/22 09:10:34;;;;;;;10.60;3.70;;;;;;;33.34;28.02;99493.02;109742;1251;58903;-53
2023/09/22 09:13:04;;;;;;;8.70;3.80;;;;;;;33.19;27.57;99492.65;109672;1251;59035;-52
2023/09/22 09:15:44;;;;;;;10.70;3.80;;;;;;;32.87;27.76;99488.80;109452;1253;66012;-52
2023/09/22 09:18:19;;;;;;;6.40;3.40;;;;;;;32.29;28.50;99490.09;109308;1252;67258;-52
2023/09/22 09:21:09;;;;;;;8.00;4.10;;;;;;;32.87;28.22;99492.61;109554;1252;64048;-52
2023/09/22 09:23:37;;;;;;;6.80;3.30;;;;;;;33.06;27.77;99490.05;109003;1259;59015;-52
2023/09/22 09:26:04;;;;;;;;;;;;;;;33.23;27.53;99490.00;108968;1259;58999;-52
2023/09/22 09:28:31;;;;;;;11.90;4.10;;;;;;;33.24;27.30;99486.91;109042;1259;66999;-53
2023/09/22 09:30:58;;;;;;;11.90;3.90;;;;;;;33.40;26.97;99482.96;109028;1260;60178;-53
2023/09/22 09:33:32;;;;;;;8.50;3.40;;;;;;;33.52;27.12;99483.98;109030;1258;65159;-53
2023/09/22 09:35:59;;;;;;;12.20;3.70;;;;;;;33.27;27.32;99486.32;108983;1260;58966;-53
2023/09/22 09:38:27;;;;;;;5.70;3.90;;;;;;;33.41;27.07;99485.25;108984;1258;59093;-52
2023/09/22 09:41:01;;;;;;;11.10;4.50;;;;;;;33.77;26.87;99486.21;109013;1259;66841;-53
2023/09/22 09:43:28;;;;;;;13.40;4.30;;;;;;;34.02;26.71;99491.05;108910;1259;60801;-54
2023/09/22 09:45:59;;;;;;;9.20;3.50;;;;;;;34.23;26.41;99488.30;108999;1259;63860;-53
2023/09/22 09:48:26;;;;;;;10.20;3.90;;;;;;;33.97;26.23;99485.15;109011;1259;58998;-53
2023/09/22 09:51:00;;;;;;;6.80;3.50;;;;;;;33.86;26.55;99488.35;109014;1258;58853;-53
2023/09/22 09:53:46;;;;;;;8.20;3.50;;;;;;;33.81;25.93;99486.63;109029;1259;66134;-53
2023/09/22 09:56:14;;;;;;;14.80;3.70;;;;;;;33.97;25.66;99484.58;109024;1260;59823;-53
2023/09/22 09:58:41;;;;;;;;;;;;;;;34.24;25.34;99486.77;109056;1259;63885;-53
2023/09/22 10:01:08;;;;;;;9.20;3.40;;;;;;;34.24;24.87;99485.98;109201;1251;60481;-52
2023/09/22 10:03:36;;;;;;;9.60;3.40;;;;;;;34.04;24.90;99487.05;109718;1251;58995;-54
2023/09/22 10:06:04;;;;;;;14.60;3.20;;;;;;;33.93;25.21;99481.21;109621;1251;67162;-52
2023/09/22 10:08:31;;;;;;;10.60;3.80;;;;;;;33.52;25.23;99478.34;109755;1251;60776;-55
2023/09/22 10:10:59;;;;;;;5.50;2.90;;;;;;;33.55;25.22;99478.23;109698;1251;65038;-53
2023/09/22 10:13:26;;;;;;;7.80;3.20;;;;;;;33.70;25.32;99480.23;109390;1253;59022;-53
2023/09/22 10:16:00;;;;;;;9.30;3.20;;;;;;;33.99;25.05;99473.35;109499;1253;58974;-52
2023/09/22 10:18:46;;;;;;;11.50;3.60;;;;;;;33.92;24.60;99474.05;109648;1251;66887;-53
2023/09/22 10:21:29;;;;;;;7.30;3.00;;;;;;;33.77;24.83;99469.67;109554;1251;59930;-52
2023/09/22 10:24:14;;;;;;;9.00;3.60;;;;;;;33.53;25.13;99469.89;109687;1251;63936;-53
2023/09/22 10:26:56;;;;;;;11.20;3.50;;;;;;;33.85;24.82;99464.98;109691;1251;58957;-51
2023/09/22 10:29:35;;;;;;;11.30;3.30;;;;;;;33.50;25.15;99460.30;109717;1251;59090;-53
2023/09/22 10:32:15;;;;;;;7.10;2.60;;;;;;;33.61;24.94;99466.81;109752;1251;66164;-53
2023/09/22 10:34:58;;;;;;;9.50;3.20;;;;;;;33.17;25.03;99457.55;109739;1251;61313;-54
2023/09/22 10:37:29;;;;;;;16.10;3.90;;;;;;;33.61;24.82;99463.91;109708;1251;64049;-52
2023/09/22 10:39:57;;;;;;;10.40;3.50;;;;;;;34.05;24.21;99461.52;109705;1251;58982;-53
2023/09/22 10:42:25;;;;;;;12.20;3.60;;;;;;;33.83;24.20;99464.52;109731;1251;59032;-53
2023/09/22 10:45:03;;;;;;;4.40;3.10;;;;;;;33.93;24.32;99466.33;109713;1251;67003;-54
2023/09/22 10:47:43;;;;;;;7.10;3.20;;;;;;;33.81;24.31;99466.63;109740;1251;60801;-53
2023/09/22 10:50:18;;;;;;;5.00;2.60;;;;;;;33.66;24.61;99463.98;109730;1251;63800;-53
2023/09/22 10:52:49;;;;;;;12.40;3.20;;;;;;;33.38;24.61;99460.09;109670;1251;59241;-52
2023/09/22 10:55:34;;;;;;;5.90;2.70;;;;;;;33.65;24.40;99458.42;109692;1251;58959;-52
2023/09/22 10:58:08;;;;;;;9.10;3.30;;;;;;;33.82;24.37;99457.39;109750;1251;65652;-52
2023/09/22 11:00:37;;;;;;;8.40;2.90;;;;;;;33.98;24.19;99453.23;109719;1250;60921;-52
2023/09/22 11:03:05;;;;;;;4.40;2.80;;;;;;;33.78;24.21;99444.23;109642;1251;65317;-52
2023/09/22 11:05:34;;;;;;;7.80;2.70;;;;;;;33.46;24.77;99450.09;109680;1250;58938;-54
2023/09/22 11:08:04;;;;;;;10.30;3.70;;;;;;;33.68;24.51;99451.16;109734;1251;59158;-52
2023/09/22 11:10:31;;;;;;;10.10;3.60;;;;;;;34.19;24.26;99451.00;109675;1251;67127;-54
2023/09/22 11:12:58;;;;;;;6.00;3.60;;;;;;;33.99;24.25;99442.08;109618;1255;58994;-53
2023/09/22 11:15:25;;;;;;;9.90;2.50;;;;;;;33.89;24.07;99444.02;109622;1251;65062;-54
2023/09/22 11:17:53;;;;;;;11.50;3.70;;;;;;;33.18;24.64;99437.59;109201;1252;59413;-52
2023/09/22 11:20:28;;;;;;;13.80;4.30;;;;;;;33.40;24.44;99449.56;109620;1253;59421;-53
2023/09/22 11:22:59;;;;;;;7.30;3.30;;;;;;;33.60;24.25;99445.12;109499;1251;66013;-53
2023/09/22 11:25:26;;;;;;;15.30;3.60;;;;;;;33.87;24.09;99446.52;109580;1253;59932;-54
2023/09/22 11:27:53;;;;;;;13.10;3.30;;;;;;;34.02;24.12;99447.63;109609;1251;65264;-53